Maybell, Colorado
Current Conditions -  °F | °C
As of 10:53 AM on Tuesday 21 Oct 2014 (Local Time) from KCAG Reporting Station
Broken Clouds Broken Clouds  
Wind Chill: 57°   Ceiling: 8000
Heat Index: 57°   Visibility: 10mi
Dew Point: 39°   Wind: 0mph
Humidity: 51%   Direction: NA
Pressure: 30.09"   Gusts: NA
Location:  40.52°N, 108.09°W
Report Text: KCAG 211653Z AUTO 00000KT 10SM SCT065 BKN080 14/04 A3009 RMK AO2 SLP162 T01390039
Loading
Personal Weather Stations






























Interactive Weather Map
Tropical Storm Tracking
New forecast layout! Learn more

10-Day Weather Forecast

Advertisements
Track Severe Weather on mobile